Time;durP1;ratioP1;P1;durP2;ratioP2;P2;SDS_P1;SDS_P2;PMS_P1;PMS_P2;Temp;Humidity;BMP_temperature;BMP_pressure;BME280_temperature;BME280_humidity;BME280_pressure;Samples;Min_cycle;Max_cycle;Signal;HPM_P1;HPM_P2
2022/09/24 00:01:19;;;;;;;15.32;9.18;;;;;;;9.59;85.58;93675.09;5010450;28;20446;-66
2022/09/24 00:04:09;;;;;;;17.20;9.23;;;;;;;9.25;87.34;93676.00;5008827;28;20237;-66
2022/09/24 00:06:45;;;;;;;16.85;10.15;;;;;;;9.17;87.86;93674.53;5008447;28;20049;-66
2022/09/24 00:09:13;;;;;;;18.87;9.37;;;;;;;9.20;88.55;93674.50;4995664;28;20060;-66
2022/09/24 00:11:42;;;;;;;14.23;9.38;;;;;;;9.54;86.63;93667.38;5009577;28;20076;-65
2022/09/24 00:14:09;;;;;;;15.18;9.10;;;;;;;9.73;85.38;93663.16;5009813;28;20046;-66
2022/09/24 00:16:38;;;;;;;15.15;8.88;;;;;;;9.81;84.72;93659.09;5009423;28;20117;-66
2022/09/24 00:19:05;;;;;;;18.52;10.10;;;;;;;9.81;84.25;93650.88;5009780;28;20057;-65
2022/09/24 00:21:34;;;;;;;18.57;10.27;;;;;;;9.88;84.11;93655.47;5009638;28;20052;-65
2022/09/24 00:24:07;;;;;;;18.42;10.50;;;;;;;9.88;84.12;93652.72;5010179;28;20390;-66
2022/09/24 00:26:50;;;;;;;17.52;10.35;;;;;;;9.82;84.34;93652.44;5008193;28;20058;-66
2022/09/24 00:29:19;;;;;;;14.73;8.90;;;;;;;9.55;85.25;93642.28;5009445;28;20054;-64
2022/09/24 00:31:48;;;;;;;14.02;9.18;;;;;;;9.62;84.89;93640.63;5008211;28;20042;-65
2022/09/24 00:34:15;;;;;;;28.33;13.87;;;;;;;9.63;84.82;93648.44;5009864;28;20453;-65
2022/09/24 00:36:42;;;;;;;16.25;9.73;;;;;;;9.55;85.58;93645.03;5008566;28;20833;-65
2022/09/24 00:39:08;;;;;;;17.40;10.20;;;;;;;9.56;85.31;93641.09;5013514;28;20068;-65
2022/09/24 00:41:36;;;;;;;18.00;10.05;;;;;;;9.60;85.05;93638.31;5012927;28;20111;-65
2022/09/24 00:44:42;;;;;;;15.40;10.13;;;;;;;9.49;85.28;93630.25;5013519;28;20049;-65
2022/09/24 00:47:14;;;;;;;17.20;9.70;;;;;;;9.56;85.43;93626.66;5012755;28;20292;-66
2022/09/24 00:49:41;;;;;;;20.00;11.00;;;;;;;9.56;84.74;93627.41;5012961;28;20042;-65
2022/09/24 00:52:08;;;;;;;19.27;10.80;;;;;;;9.60;84.93;93633.59;5012160;28;20053;-65
2022/09/24 00:54:36;;;;;;;17.27;10.38;;;;;;;9.64;84.34;93621.78;5012667;28;20122;-68
2022/09/24 00:57:03;;;;;;;48.95;26.85;;;;;;;9.67;84.30;93620.97;5013412;28;20045;-65
2022/09/24 00:59:30;;;;;;;32.20;16.83;;;;;;;9.74;84.33;93615.41;5013078;28;20046;-65
2022/09/24 01:01:57;;;;;;;18.13;10.73;;;;;;;9.75;84.08;93605.97;5013291;28;20040;-65
2022/09/24 01:04:26;;;;;;;16.73;10.38;;;;;;;9.80;84.17;93598.03;5006646;28;20044;-65
2022/09/24 01:06:54;;;;;;;17.80;10.20;;;;;;;9.85;84.02;93598.75;5008672;28;20038;-66
2022/09/24 01:09:24;;;;;;;15.40;9.73;;;;;;;9.85;84.00;93593.28;5013000;28;20050;-65
2022/09/24 01:12:08;;;;;;;16.60;10.20;;;;;;;9.88;83.70;93589.69;5013013;28;20048;-65
2022/09/24 01:15:14;;;;;;;16.92;9.68;;;;;;;9.96;83.50;93580.13;5012869;28;20046;-68
2022/09/24 01:18:05;;;;;;;14.93;9.40;;;;;;;9.66;84.67;93581.06;5012623;28;20548;-65
2022/09/24 01:20:41;;;;;;;14.52;9.45;;;;;;;9.56;85.67;93589.06;5012739;28;20058;-65
2022/09/24 01:23:40;;;;;;;16.08;10.43;;;;;;;9.46;85.59;93590.00;5013085;28;20103;-66
2022/09/24 01:26:55;;;;;;;17.67;10.70;;;;;;;9.48;86.10;93595.06;5012321;28;20049;-65
2022/09/24 01:29:42;;;;;;;15.55;9.93;;;;;;;9.56;85.59;93596.50;5011402;28;20729;-67
2022/09/24 01:32:40;;;;;;;19.45;10.82;;;;;;;9.57;85.61;93589.81;5012939;28;20091;-65
2022/09/24 01:35:07;;;;;;;14.75;9.80;;;;;;;9.76;85.00;93591.09;5011253;28;20854;-65
2022/09/24 01:37:38;;;;;;;20.33;11.80;;;;;;;9.78;84.79;93588.69;5012390;28;20119;-65
2022/09/24 01:40:07;;;;;;;16.70;10.53;;;;;;;9.56;85.25;93586.31;5012538;28;20529;-65
2022/09/24 01:42:37;;;;;;;18.30;11.07;;;;;;;9.48;85.34;93587.63;5012504;28;20057;-65
2022/09/24 01:45:05;;;;;;;19.55;11.13;;;;;;;9.48;85.56;93584.88;5012324;28;20049;-67
2022/09/24 01:47:38;;;;;;;16.77;9.95;;;;;;;9.38;86.81;93596.78;5011898;28;20491;-66
2022/09/24 01:50:08;;;;;;;18.15;10.55;;;;;;;9.38;87.16;93594.06;5009691;28;20046;-68
2022/09/24 01:53:10;;;;;;;16.20;10.27;;;;;;;9.47;87.03;93602.50;5012025;28;20046;-68
2022/09/24 01:55:46;;;;;;;15.77;10.48;;;;;;;9.59;86.26;93603.88;5012086;28;20132;-65
2022/09/24 01:58:35;;;;;;;19.27;11.23;;;;;;;9.56;86.44;93591.03;5012593;28;20064;-64
2022/09/24 02:01:07;;;;;;;17.42;10.80;;;;;;;9.76;85.56;93593.81;5011169;28;20589;-66
2022/09/24 02:03:42;;;;;;;19.02;10.75;;;;;;;9.83;85.00;93585.47;5011889;28;20050;-64
2022/09/24 02:06:16;;;;;;;15.37;10.23;;;;;;;9.88;84.91;93571.28;5010954;28;20042;-66
2022/09/24 02:08:46;;;;;;;16.27;9.90;;;;;;;9.91;84.00;93569.66;5026374;28;20112;-64
2022/09/24 02:11:26;;;;;;;16.83;10.20;;;;;;;9.84;84.96;93578.00;5012002;28;20053;-65
2022/09/24 02:14:03;;;;;;;18.65;10.45;;;;;;;9.70;85.45;93566.13;5010861;28;20633;-64
2022/09/24 02:16:38;;;;;;;17.05;10.10;;;;;;;9.89;84.95;93567.34;5010311;28;20116;-66
2022/09/24 02:19:08;;;;;;;17.53;10.47;;;;;;;9.99;84.68;93573.81;5012386;28;20396;-64
2022/09/24 02:21:39;;;;;;;16.42;9.68;;;;;;;9.92;85.32;93579.41;5011808;28;20045;-64
2022/09/24 02:24:32;;;;;;;19.13;11.30;;;;;;;9.84;85.60;93576.06;5012031;28;20056;-64
2022/09/24 02:26:58;;;;;;;16.60;10.55;;;;;;;9.79;86.54;93582.00;5003567;28;20608;-64
2022/09/24 02:29:25;;;;;;;19.98;12.60;;;;;;;9.98;85.71;93567.56;5011192;28;20453;-64
2022/09/24 02:31:55;;;;;;;22.63;11.30;;;;;;;9.90;86.18;93568.91;5010200;28;20399;-66
2022/09/24 02:34:30;;;;;;;17.80;10.85;;;;;;;9.98;85.43;93562.09;5011096;28;20049;-64
2022/09/24 02:37:04;;;;;;;18.17;11.55;;;;;;;9.83;85.83;93555.31;5011482;28;20395;-66
2022/09/24 02:39:31;;;;;;;16.77;11.13;;;;;;;9.98;85.60;93547.63;5011144;28;20418;-64
2022/09/24 02:41:59;;;;;;;18.45;10.90;;;;;;;10.05;85.32;93546.69;5011464;28;20060;-64
2022/09/24 02:44:26;;;;;;;18.00;10.57;;;;;;;10.14;84.95;93541.41;5011046;28;20104;-64
2022/09/24 02:46:53;;;;;;;17.17;10.43;;;;;;;10.14;85.13;93538.66;5009746;28;20049;-64
2022/09/24 02:49:19;;;;;;;19.35;11.02;;;;;;;10.08;84.85;93540.34;4993576;28;20054;-65
2022/09/24 02:51:46;;;;;;;15.80;10.75;;;;;;;9.58;86.93;93539.34;5011277;28;20042;-65
2022/09/24 02:54:13;;;;;;;17.92;11.60;;;;;;;9.31;88.50;93529.19;5011475;28;20564;-64
2022/09/24 02:56:40;;;;;;;17.73;11.27;;;;;;;9.51;88.51;93533.97;5010762;28;20398;-64
2022/09/24 02:59:08;;;;;;;17.17;11.00;;;;;;;9.75;87.17;93538.22;5011165;28;20046;-64
2022/09/24 03:01:35;;;;;;;16.95;10.90;;;;;;;9.85;86.74;93533.75;5010272;28;20054;-65
2022/09/24 03:04:02;;;;;;;18.10;11.00;;;;;;;9.95;86.33;93535.50;5011078;28;20791;-64
2022/09/24 03:06:29;;;;;;;16.55;11.02;;;;;;;9.89;86.60;93536.44;5010829;28;20080;-64
2022/09/24 03:08:57;;;;;;;17.40;11.40;;;;;;;9.74;86.94;93538.66;5010719;28;20656;-65
2022/09/24 03:11:24;;;;;;;15.73;10.10;;;;;;;9.96;85.81;93541.75;5010591;28;20398;-66
2022/09/24 03:13:51;;;;;;;15.80;10.38;;;;;;;9.92;86.02;93538.31;5010461;28;20046;-65
2022/09/24 03:16:18;;;;;;;18.52;10.25;;;;;;;9.85;86.38;93533.75;5009352;28;20088;-63
2022/09/24 03:18:46;;;;;;;16.77;10.60;;;;;;;9.89;87.04;93531.72;5011391;28;20471;-65
2022/09/24 03:21:15;;;;;;;15.77;10.50;;;;;;;9.97;86.39;93521.38;5009731;28;20046;-64
2022/09/24 03:23:42;;;;;;;17.52;10.13;;;;;;;9.97;86.83;93524.91;5009898;28;20059;-65
2022/09/24 03:26:09;;;;;;;17.77;9.82;;;;;;;10.04;86.66;93531.44;5010908;28;20042;-66
2022/09/24 03:28:36;;;;;;;16.77;10.20;;;;;;;9.81;88.04;93527.56;5010219;28;20056;-66
2022/09/24 03:31:03;;;;;;;19.35;11.77;;;;;;;9.35;90.15;93529.16;5010408;28;20407;-65
2022/09/24 03:33:40;;;;;;;18.27;10.93;;;;;;;9.27;91.26;93522.25;5010176;28;20400;-65
2022/09/24 03:36:22;;;;;;;16.50;10.25;;;;;;;9.63;89.43;93524.38;5010438;28;20038;-64
2022/09/24 03:38:50;;;;;;;17.63;10.88;;;;;;;9.73;89.12;93529.66;5009264;28;20427;-65
2022/09/24 03:41:17;;;;;;;16.73;9.95;;;;;;;9.88;88.81;93529.38;5010138;28;20052;-65
2022/09/24 03:43:44;;;;;;;17.30;10.77;;;;;;;9.90;88.30;93527.78;5010504;28;20050;-65
2022/09/24 03:46:12;;;;;;;16.27;10.57;;;;;;;9.95;88.21;93534.75;5010554;28;20042;-67
2022/09/24 03:48:39;;;;;;;18.42;10.70;;;;;;;10.05;88.86;93533.00;5010124;28;20107;-64
2022/09/24 03:51:15;;;;;;;17.45;10.75;;;;;;;9.90;88.35;93535.22;5010180;28;20438;-65
2022/09/24 03:53:43;;;;;;;17.20;10.48;;;;;;;9.88;88.90;93532.91;5010091;28;20076;-64
2022/09/24 03:56:11;;;;;;;17.75;10.55;;;;;;;9.91;88.96;93529.31;5010010;28;20049;-65
2022/09/24 03:58:39;;;;;;;18.33;11.37;;;;;;;9.88;89.09;93518.41;5009781;28;20376;-66
2022/09/24 04:01:07;;;;;;;16.55;11.10;;;;;;;10.03;88.45;93521.69;5009891;28;20867;-66
2022/09/24 04:03:35;;;;;;;18.40;11.27;;;;;;;10.10;88.19;93518.78;5009891;28;20407;-65
2022/09/24 04:06:02;;;;;;;18.58;11.13;;;;;;;10.13;87.99;93515.97;5009843;28;20054;-66
2022/09/24 04:08:30;;;;;;;17.48;10.88;;;;;;;10.17;88.21;93513.16;5009467;28;20465;-65
2022/09/24 04:10:57;;;;;;;18.50;11.40;;;;;;;10.10;88.84;93511.34;5009717;28;20038;-65
2022/09/24 04:13:24;;;;;;;19.80;11.27;;;;;;;9.92;89.49;93508.16;5009153;28;20038;-64
2022/09/24 04:15:52;;;;;;;17.40;11.63;;;;;;;9.96;90.01;93508.88;5008453;28;20046;-65
2022/09/24 04:18:19;;;;;;;17.02;11.05;;;;;;;9.97;89.23;93502.97;5010284;28;20049;-65
2022/09/24 04:20:46;;;;;;;16.00;10.77;;;;;;;10.19;89.11;93502.53;5010187;28;20095;-68
2022/09/24 04:23:13;;;;;;;18.37;10.47;;;;;;;10.30;89.14;93508.63;5010041;28;20045;-65
2022/09/24 04:25:40;;;;;;;17.02;10.82;;;;;;;10.34;89.07;93503.84;5009474;28;20058;-65
2022/09/24 04:28:08;;;;;;;20.90;11.63;;;;;;;10.33;89.30;93504.25;5008458;28;20076;-66
2022/09/24 04:30:36;;;;;;;17.88;11.35;;;;;;;10.17;90.91;93507.69;5009469;28;20049;-64
2022/09/24 04:33:04;;;;;;;17.40;11.48;;;;;;;10.24;90.09;93513.03;5009650;28;20549;-66
2022/09/24 04:35:34;;;;;;;18.67;11.47;;;;;;;10.29;89.42;93512.53;5009101;28;20058;-66
2022/09/24 04:38:02;;;;;;;18.85;11.55;;;;;;;9.95;90.47;93518.28;5009778;28;20045;-64
2022/09/24 04:40:29;;;;;;;18.98;12.00;;;;;;;9.90;91.20;93516.03;5009412;28;20050;-65
2022/09/24 04:42:56;;;;;;;22.75;13.88;;;;;;;9.92;91.62;93522.66;5009451;28;20112;-65
2022/09/24 04:45:23;;;;;;;21.48;13.70;;;;;;;9.93;91.19;93517.94;5024573;28;20058;-65
2022/09/24 04:47:54;;;;;;;20.57;11.87;;;;;;;10.04;91.25;93520.47;5009163;28;20601;-64
2022/09/24 04:50:27;;;;;;;19.27;12.10;;;;;;;10.08;92.12;93521.16;5009234;28;20050;-64
2022/09/24 04:52:54;;;;;;;18.73;11.30;;;;;;;10.16;91.97;93514.34;5009469;28;20174;-64
2022/09/24 04:55:22;;;;;;;19.23;12.18;;;;;;;10.20;91.61;93526.00;5009413;28;20046;-65
2022/09/24 04:57:49;;;;;;;16.45;11.32;;;;;;;10.16;91.42;93522.56;5009565;28;20410;-68
2022/09/24 05:00:19;;;;;;;18.60;11.53;;;;;;;10.23;91.63;93524.41;5009776;28;20461;-65
2022/09/24 05:02:46;;;;;;;19.52;11.48;;;;;;;10.24;91.84;93524.00;5008517;28;20622;-65
2022/09/24 05:05:13;;;;;;;20.13;12.15;;;;;;;10.25;91.80;93517.31;5009395;28;20054;-65
2022/09/24 05:07:40;;;;;;;17.90;11.38;;;;;;;10.22;93.23;93520.13;5009244;28;20053;-65
2022/09/24 05:10:08;;;;;;;18.73;12.07;;;;;;;10.18;92.30;93518.22;5009310;28;20056;-65
2022/09/24 05:12:35;;;;;;;18.30;11.13;;;;;;;10.10;93.06;93529.75;5009032;28;20111;-65
2022/09/24 05:15:02;;;;;;;18.25;11.98;;;;;;;10.13;93.07;93528.91;5008950;28;20438;-64
2022/09/24 05:17:29;;;;;;;17.77;11.63;;;;;;;10.19;93.17;93536.22;5009083;28;20046;-66
2022/09/24 05:19:56;;;;;;;17.23;11.35;;;;;;;10.22;93.72;93533.81;5009394;28;20050;-65
2022/09/24 05:22:26;;;;;;;16.88;11.10;;;;;;;10.25;93.06;93530.25;5009068;28;20049;-65
2022/09/24 05:24:53;;;;;;;17.57;11.37;;;;;;;10.02;94.42;93526.41;5012243;28;20079;-64
2022/09/24 05:27:22;;;;;;;19.42;11.60;;;;;;;10.12;94.29;93533.63;5012524;28;20424;-65
2022/09/24 05:29:49;;;;;;;17.50;11.48;;;;;;;10.16;94.01;93544.50;5013051;28;20099;-66
2022/09/24 05:32:18;;;;;;;19.88;11.80;;;;;;;10.18;94.27;93544.84;5012507;28;20042;-64
2022/09/24 05:34:45;;;;;;;20.35;11.93;;;;;;;10.04;94.66;93539.66;5011786;28;20462;-64
2022/09/24 05:37:13;;;;;;;17.90;11.27;;;;;;;10.06;94.82;93534.53;5012377;28;20056;-65
2022/09/24 05:39:40;;;;;;;22.38;11.82;;;;;;;10.06;94.87;93538.06;5012426;28;20044;-65
2022/09/24 05:42:09;;;;;;;20.10;12.60;;;;;;;10.11;95.09;93542.28;5012341;28;20408;-65
2022/09/24 05:44:36;;;;;;;22.33;13.38;;;;;;;10.06;95.47;93540.81;5012052;28;20247;-65
2022/09/24 05:47:03;;;;;;;23.30;13.80;;;;;;;10.25;95.56;93547.47;5012008;28;20054;-66
2022/09/24 05:49:30;;;;;;;23.70;14.20;;;;;;;10.32;95.42;93543.84;5012041;28;20045;-64
2022/09/24 05:51:57;;;;;;;26.58;15.80;;;;;;;10.36;95.46;93539.84;5010891;28;20045;-65
2022/09/24 05:54:24;;;;;;;26.70;14.82;;;;;;;10.43;95.84;93543.63;5010799;28;20099;-65
2022/09/24 05:56:51;;;;;;;24.50;15.00;;;;;;;10.48;95.04;93556.84;5012332;28;20041;-64
2022/09/24 05:59:18;;;;;;;22.67;14.20;;;;;;;10.49;95.20;93550.94;5012011;28;20157;-63
2022/09/24 06:01:44;;;;;;;24.03;14.00;;;;;;;10.59;95.09;93555.41;5011238;28;20046;-65
2022/09/24 06:04:11;;;;;;;22.63;13.50;;;;;;;10.51;95.33;93551.28;5012793;28;20536;-66
2022/09/24 06:06:38;;;;;;;22.63;13.90;;;;;;;10.34;96.10;93550.47;5012130;28;20064;-65
2022/09/24 06:09:04;;;;;;;21.98;14.30;;;;;;;10.38;95.88;93548.41;5012021;28;20091;-65
2022/09/24 06:11:34;;;;;;;22.85;14.90;;;;;;;10.36;95.57;93552.75;5011153;28;20394;-65
2022/09/24 06:14:07;;;;;;;23.33;15.10;;;;;;;10.50;95.71;93557.19;5011440;28;20414;-65
2022/09/24 06:16:34;;;;;;;24.73;15.30;;;;;;;10.67;94.37;93558.78;5010134;28;20042;-65
2022/09/24 06:19:01;;;;;;;24.80;14.48;;;;;;;10.77;94.49;93554.28;5010919;28;20045;-65
2022/09/24 06:21:28;;;;;;;22.20;14.20;;;;;;;10.70;94.23;93555.19;5010025;28;20046;-65
2022/09/24 06:23:55;;;;;;;26.83;16.60;;;;;;;10.62;94.49;93564.75;5008846;28;20068;-66
2022/09/24 06:26:22;;;;;;;25.00;15.73;;;;;;;10.52;95.54;93560.28;5010563;28;20054;-66
2022/09/24 06:28:48;;;;;;;24.55;14.68;;;;;;;10.49;95.77;93558.41;5010927;28;20045;-66
2022/09/24 06:31:15;;;;;;;23.77;14.43;;;;;;;10.54;95.21;93557.88;5010019;28;20432;-67
2022/09/24 06:33:42;;;;;;;23.73;14.77;;;;;;;10.70;94.60;93559.91;5010745;28;20263;-67
2022/09/24 06:36:09;;;;;;;22.73;14.48;;;;;;;10.76;94.77;93560.94;5007438;28;20054;-66
2022/09/24 06:38:38;;;;;;;25.13;14.87;;;;;;;10.88;94.43;93565.00;5010873;28;20045;-66
2022/09/24 06:41:05;;;;;;;25.10;14.75;;;;;;;10.89;94.15;93561.84;5010377;28;20049;-67
2022/09/24 06:43:33;;;;;;;25.50;14.90;;;;;;;10.97;94.03;93571.47;5011103;28;20049;-67
2022/09/24 06:46:00;;;;;;;24.65;14.32;;;;;;;10.88;94.71;93565.00;5010526;28;20075;-67
2022/09/24 06:48:28;;;;;;;26.05;15.38;;;;;;;10.90;95.41;93565.34;5010360;28;20458;-67
2022/09/24 06:50:55;;;;;;;24.97;15.40;;;;;;;10.80;95.99;93567.13;5011294;28;20045;-69
2022/09/24 06:53:22;;;;;;;25.88;15.57;;;;;;;10.85;96.08;93579.59;5011009;28;20045;-67
2022/09/24 06:55:49;;;;;;;25.15;15.52;;;;;;;11.01;96.44;93574.13;5011291;28;20088;-67
2022/09/24 06:58:21;;;;;;;24.38;14.25;;;;;;;11.25;95.94;93574.75;5011218;28;20054;-68
2022/09/24 07:01:01;;;;;;;24.55;16.17;;;;;;;11.00;96.58;93580.81;5008424;28;20642;-67
2022/09/24 07:03:30;;;;;;;24.83;14.53;;;;;;;10.85;97.97;93574.88;5011094;28;20403;-67
2022/09/24 07:06:02;;;;;;;25.70;14.82;;;;;;;10.91;97.34;93575.91;5011455;28;20445;-67
2022/09/24 07:08:30;;;;;;;26.92;16.05;;;;;;;10.88;97.89;93578.72;5010737;28;20400;-67
2022/09/24 07:10:56;;;;;;;28.02;16.70;;;;;;;11.05;97.68;93580.31;5011117;28;20430;-69
2022/09/24 07:13:23;;;;;;;25.63;15.77;;;;;;;11.16;96.63;93583.56;5025562;28;20038;-67
2022/09/24 07:15:51;;;;;;;27.37;15.97;;;;;;;11.02;97.58;93585.88;5011046;28;20477;-67
2022/09/24 07:18:19;;;;;;;29.45;16.55;;;;;;;11.33;97.41;93587.13;5010067;28;20099;-66
2022/09/24 07:20:55;;;;;;;29.83;18.10;;;;;;;11.07;97.56;93585.41;5010923;28;20422;-68
2022/09/24 07:23:22;;;;;;;24.77;15.73;;;;;;;11.44;95.90;93584.13;5010348;28;20057;-68
2022/09/24 07:25:54;;;;;;;29.05;17.83;;;;;;;11.30;95.59;93577.00;5011034;28;20659;-67
2022/09/24 07:28:21;;;;;;;28.23;17.43;;;;;;;11.27;97.01;93585.31;5010210;28;20441;-67
2022/09/24 07:30:56;;;;;;;25.45;17.13;;;;;;;11.05;98.91;93577.56;5010902;28;20038;-67
2022/09/24 07:33:23;;;;;;;23.42;15.10;;;;;;;11.35;97.18;93589.47;5010209;28;20137;-67
2022/09/24 07:35:49;;;;;;;27.80;16.95;;;;;;;11.68;95.94;93584.72;5010712;28;20038;-67
2022/09/24 07:38:16;;;;;;;22.55;14.23;;;;;;;11.93;94.44;93583.34;5010263;28;20050;-67
2022/09/24 07:40:43;;;;;;;18.60;12.10;;;;;;;12.04;94.00;93583.06;5009696;28;20680;-67
2022/09/24 07:43:12;;;;;;;20.63;12.32;;;;;;;12.23;92.26;93578.63;5010372;28;20115;-68
2022/09/24 07:45:40;;;;;;;18.92;11.57;;;;;;;12.36;92.04;93582.22;5009928;28;20483;-67
2022/09/24 07:48:09;;;;;;;17.77;10.80;;;;;;;12.41;91.96;93584.41;5010167;28;20057;-67
2022/09/24 07:50:41;;;;;;;18.33;11.30;;;;;;;12.44;92.27;93588.28;5009992;28;20103;-67
2022/09/24 07:53:11;;;;;;;15.53;10.20;;;;;;;12.73;91.00;93582.75;5010353;28;20046;-67
2022/09/24 07:55:39;;;;;;;31.73;18.10;;;;;;;12.84;90.43;93587.94;5010137;28;20042;-67
2022/09/24 07:58:13;;;;;;;28.20;16.58;;;;;;;12.97;88.94;93586.75;4997130;28;20037;-67
2022/09/24 08:00:40;;;;;;;25.25;16.65;;;;;;;13.02;87.47;93590.94;5005776;28;20046;-67
2022/09/24 08:03:06;;;;;;;17.98;12.13;;;;;;;12.71;88.81;93591.44;5010478;28;20394;-67
2022/09/24 08:05:33;;;;;;;17.53;11.50;;;;;;;12.70;89.14;93587.16;5010419;28;20076;-67
2022/09/24 08:08:00;;;;;;;19.23;12.15;;;;;;;12.48;90.71;93588.97;5010050;28;20041;-68
2022/09/24 08:10:27;;;;;;;20.50;13.70;;;;;;;12.45;90.69;93587.06;5002943;28;20396;-67
2022/09/24 08:12:57;;;;;;;20.15;13.63;;;;;;;12.37;90.91;93587.28;5010015;28;20438;-67
2022/09/24 08:15:24;;;;;;;28.73;19.75;;;;;;;12.46;91.35;93596.88;5009216;28;20038;-68
2022/09/24 08:17:51;;;;;;;22.63;14.70;;;;;;;12.59;91.56;93592.19;5010112;28;20050;-69
2022/09/24 08:20:18;;;;;;;22.77;15.93;;;;;;;12.64;91.17;93585.38;5009597;28;20099;-68
2022/09/24 08:22:45;;;;;;;24.73;17.15;;;;;;;12.90;91.64;93583.44;5010191;28;20038;-68
2022/09/24 08:25:11;;;;;;;24.30;17.27;;;;;;;13.05;90.45;93587.31;5009798;28;20046;-67
2022/09/24 08:27:38;;;;;;;21.80;14.23;;;;;;;13.04;89.95;93591.28;5009577;28;20050;-66
2022/09/24 08:30:05;;;;;;;22.20;15.40;;;;;;;13.18;89.21;93584.56;5009817;28;20046;-66
2022/09/24 08:32:32;;;;;;;22.42;14.80;;;;;;;13.05;89.66;93584.56;5009347;28;20447;-68
2022/09/24 08:34:59;;;;;;;18.52;12.63;;;;;;;13.04;90.62;93585.78;5009797;28;20109;-68
2022/09/24 08:37:28;;;;;;;15.90;10.30;;;;;;;12.96;87.60;93584.44;5009264;28;20410;-69
2022/09/24 08:39:55;;;;;;;16.70;11.45;;;;;;;13.04;87.93;93584.97;5009749;28;20103;-69
2022/09/24 08:42:34;;;;;;;15.87;10.93;;;;;;;13.08;87.82;93586.44;5009381;28;20054;-68
2022/09/24 08:48:19;;;;;;;12.93;8.25;;;;;;;13.17;87.52;93589.28;5007845;28;20042;-69
2022/09/24 08:51:00;;;;;;;13.38;8.52;;;;;;;13.25;86.63;93586.34;5008567;28;21911;-68
2022/09/24 08:53:48;;;;;;;13.02;8.73;;;;;;;13.25;87.36;93589.84;5009229;28;20537;-68
2022/09/24 08:56:24;;;;;;;9.50;6.50;;;;;;;13.13;86.81;93585.13;5009473;28;20046;-68
2022/09/24 08:58:58;;;;;;;9.52;6.22;;;;;;;13.12;86.56;93592.63;5009254;28;20438;-68
2022/09/24 09:01:34;;;;;;;10.90;7.47;;;;;;;13.31;87.74;93595.63;5012974;28;20523;-68
2022/09/24 09:04:16;;;;;;;11.85;8.13;;;;;;;13.44;87.22;93601.13;5013501;28;20398;-68
2022/09/24 09:07:19;;;;;;;11.50;7.57;;;;;;;13.39;86.32;93602.44;5012734;28;20270;-68
2022/09/24 09:09:56;;;;;;;10.30;6.30;;;;;;;13.13;87.12;93610.66;5012719;28;21582;-66
2022/09/24 09:12:29;;;;;;;11.20;7.38;;;;;;;13.21;88.27;93610.47;5012691;28;20046;-67
2022/09/24 09:15:05;;;;;;;12.07;8.27;;;;;;;13.00;88.39;93609.91;5013175;28;20139;-68
2022/09/24 09:17:47;;;;;;;10.18;6.22;;;;;;;12.87;90.84;93607.09;5012647;28;20412;-69
2022/09/24 09:20:17;;;;;;;10.75;6.32;;;;;;;13.13;89.36;93609.91;5013119;28;20045;-67
2022/09/24 09:22:50;;;;;;;9.20;5.30;;;;;;;13.10;87.21;93605.25;5010746;28;20458;-69
2022/09/24 09:25:27;;;;;;;7.60;4.93;;;;;;;13.18;86.42;93599.13;5012961;28;20141;-68
2022/09/24 09:28:00;;;;;;;7.07;4.55;;;;;;;13.54;85.59;93598.03;5012168;28;20751;-67
2022/09/24 09:30:37;;;;;;;9.13;4.75;;;;;;;13.99;82.35;93598.97;5012397;28;20050;-66
2022/09/24 09:33:25;;;;;;;7.05;4.55;;;;;;;14.67;80.53;93604.13;5012930;28;20057;-66
2022/09/24 09:36:10;;;;;;;6.23;4.30;;;;;;;14.34;80.88;93602.47;5010685;28;20038;-68
2022/09/24 09:38:58;;;;;;;6.72;4.30;;;;;;;13.82;83.28;93605.81;5012496;28;20122;-68
2022/09/24 09:41:40;;;;;;;7.15;4.78;;;;;;;13.93;83.61;93603.50;5012088;28;20060;-68
2022/09/24 09:44:25;;;;;;;7.00;4.72;;;;;;;13.88;82.58;93599.28;5012806;28;21173;-68
2022/09/24 09:47:07;;;;;;;6.90;4.15;;;;;;;13.87;82.42;93597.00;5011798;28;21508;-68
2022/09/24 09:49:37;;;;;;;5.97;4.10;;;;;;;13.78;83.54;93594.91;5011059;28;20465;-69
2022/09/24 09:52:13;;;;;;;7.55;4.30;;;;;;;13.77;81.90;93596.91;5012506;28;20168;-68
2022/09/24 09:54:40;;;;;;;15.88;5.95;;;;;;;14.48;81.68;93586.63;5012248;28;20390;-68
2022/09/24 09:57:13;;;;;;;5.68;3.35;;;;;;;14.71;77.54;93582.69;5012309;28;20049;-68
2022/09/24 09:59:44;;;;;;;4.47;3.10;;;;;;;14.92;76.37;93586.66;5012146;28;20037;-67
2022/09/24 10:02:21;;;;;;;4.70;3.10;;;;;;;15.62;73.66;93589.88;5012261;28;20042;-67
2022/09/24 10:04:54;;;;;;;5.72;3.25;;;;;;;15.99;73.00;93576.16;5011664;28;21696;-68
2022/09/24 10:07:21;;;;;;;5.13;3.28;;;;;;;15.60;73.18;93584.03;5011473;28;20042;-67
2022/09/24 10:10:02;;;;;;;6.45;3.58;;;;;;;16.03;70.44;93585.09;5011007;28;20042;-67
2022/09/24 10:12:29;;;;;;;4.70;3.40;;;;;;;16.24;69.84;93585.41;5011435;28;20037;-67
2022/09/24 10:15:14;;;;;;;10.10;4.30;;;;;;;15.93;72.64;93584.28;5012135;28;20069;-67
2022/09/24 10:17:42;;;;;;;5.68;3.72;;;;;;;15.59;72.55;93585.25;5011912;28;20052;-67
2022/09/24 10:20:28;;;;;;;6.00;3.60;;;;;;;15.50;73.46;93579.72;5011953;28;20046;-67
2022/09/24 10:23:07;;;;;;;5.55;3.47;;;;;;;15.55;75.12;93577.13;5011249;28;21559;-68
2022/09/24 10:25:36;;;;;;;5.20;3.50;;;;;;;16.07;72.40;93576.63;5011835;28;20060;-67
2022/09/24 10:30:57;;;;;;;5.53;3.40;;;;;;;15.84;72.41;93575.22;5009358;28;20900;-66
2022/09/24 10:33:25;;;;;;;6.05;3.50;;;;;;;16.44;71.29;93571.91;5011875;28;20053;-66
2022/09/24 10:36:22;;;;;;;4.50;3.20;;;;;;;16.53;69.90;93565.59;5012230;28;20046;-66
2022/09/24 10:39:20;;;;;;;4.82;3.55;;;;;;;16.55;68.97;93568.66;5000178;28;20223;-66
2022/09/24 10:41:49;;;;;;;4.90;3.00;;;;;;;16.25;70.98;93573.13;5010817;28;20096;-66
2022/09/24 10:44:18;;;;;;;5.75;3.40;;;;;;;16.34;71.34;93579.44;5011368;28;20044;-67
2022/09/24 10:46:56;;;;;;;4.38;2.85;;;;;;;16.03;70.94;93578.78;5010543;28;20599;-67
2022/09/24 10:49:41;;;;;;;4.50;3.03;;;;;;;16.00;72.14;93574.16;5009494;28;20044;-67
2022/09/24 10:52:39;;;;;;;5.13;3.17;;;;;;;16.58;70.95;93573.28;5011461;28;20046;-67
2022/09/24 10:55:24;;;;;;;13.77;5.20;;;;;;;16.70;70.75;93577.09;5010599;28;20410;-67
2022/09/24 10:58:02;;;;;;;5.15;3.08;;;;;;;16.18;70.80;93569.44;5010414;28;20252;-66
2022/09/24 11:00:58;;;;;;;4.40;3.03;;;;;;;16.25;70.19;93573.13;5010499;28;20053;-68
2022/09/24 11:03:43;;;;;;;5.40;3.65;;;;;;;15.85;70.92;93565.69;4990382;28;20042;-66
2022/09/24 11:06:39;;;;;;;4.80;3.30;;;;;;;16.17;70.35;93570.66;5011031;28;20041;-68
2022/09/24 11:09:38;;;;;;;4.50;3.00;;;;;;;15.70;71.28;93566.25;5009997;28;20042;-66
2022/09/24 11:12:38;;;;;;;4.50;2.80;;;;;;;15.62;71.52;93561.47;5010414;28;20052;-67
2022/09/24 11:15:30;;;;;;;5.38;3.47;;;;;;;16.11;71.61;93574.50;5010123;28;20052;-67
2022/09/24 11:18:31;;;;;;;5.00;3.08;;;;;;;15.98;70.04;93572.63;5010213;28;21323;-67
2022/09/24 11:21:20;;;;;;;4.35;2.88;;;;;;;15.63;71.33;93565.75;5009757;28;20115;-67
2022/09/24 11:24:03;;;;;;;4.67;3.00;;;;;;;15.62;71.85;93562.22;4981189;28;21558;-66
2022/09/24 11:26:37;;;;;;;4.75;3.00;;;;;;;15.80;71.38;93567.06;5010314;28;20052;-67
2022/09/24 11:29:28;;;;;;;4.38;2.83;;;;;;;16.08;70.27;93561.59;5010638;28;20046;-67
2022/09/24 11:32:12;;;;;;;4.85;2.80;;;;;;;16.05;70.50;93568.03;5010013;28;20041;-66
2022/09/24 11:35:17;;;;;;;4.60;2.78;;;;;;;16.12;71.49;93562.19;5010362;28;20041;-66
2022/09/24 11:38:09;;;;;;;11.73;4.40;;;;;;;16.12;69.10;93562.19;5009785;28;21555;-67
2022/09/24 11:40:44;;;;;;;13.80;4.40;;;;;;;15.90;69.55;93563.09;5009767;28;20034;-66
2022/09/24 11:43:42;;;;;;;8.55;4.10;;;;;;;15.70;70.42;93559.94;5010784;28;20427;-66
2022/09/24 11:46:46;;;;;;;5.65;3.20;;;;;;;15.78;69.20;93558.47;5009563;28;20673;-66
2022/09/24 11:49:19;;;;;;;11.52;5.00;;;;;;;15.63;70.58;93555.47;5009520;28;20600;-67
2022/09/24 11:51:55;;;;;;;12.10;3.60;;;;;;;15.57;70.70;93555.31;5009464;28;20065;-67
2022/09/24 11:54:55;;;;;;;9.95;4.13;;;;;;;15.62;70.88;93550.41;5009777;28;20457;-67
2022/09/24 11:57:34;;;;;;;9.95;4.57;;;;;;;15.41;70.61;93552.78;4998234;28;20049;-66